DLH1X LIMC-EDDF
Flight info
| Callsign | DLH1X |
|---|---|
| Flight time | 0h 49m |
| Altitude | 32000 |
| Route | PEPAG DCT ABESI N851 UTAVO DCT ROLSA DCT LADOL T163 EMPAX EMPAX5B |
| Aircraft | A346/H-SDE2E3FGHIJ3J4J5M1RWXY/LB1D1 |
Departure
| Time | 2026-05-07 13:13 |
|---|---|
| Airport | Milan Malpensa International Airport (LIMC) |
Arrival
| Time | 2026-05-07 14:02 |
|---|---|
| Airport | Frankfurt Main Airport (EDDF) |
| Time | Latitude | Longitude | Altitude | Speed | Heading |
|---|---|---|---|---|---|
| 2026-05-07 12:34 | 45.63448 | 8.71560 | 746 ft | 0 kts | 349° |
| 2026-05-07 12:58 | 45.63435 | 8.71563 | 745 ft | 3 kts | 351° |
| 2026-05-07 12:58 | 45.63413 | 8.71566 | 746 ft | 4 kts | 8° |
| 2026-05-07 12:58 | 45.63397 | 8.71557 | 744 ft | 4 kts | 45° |
| 2026-05-07 12:59 | 45.63387 | 8.71531 | 744 ft | 4 kts | 77° |
| 2026-05-07 12:59 | 45.63383 | 8.71494 | 744 ft | 4 kts | 80° |
| 2026-05-07 12:59 | 45.63382 | 8.71485 | 744 ft | 0 kts | 79° |
| 2026-05-07 13:05 | 45.63385 | 8.71510 | 746 ft | 6 kts | 79° |
| 2026-05-07 13:05 | 45.63396 | 8.71590 | 747 ft | 10 kts | 79° |
| 2026-05-07 13:05 | 45.63411 | 8.71702 | 749 ft | 13 kts | 79° |
| 2026-05-07 13:05 | 45.63429 | 8.71832 | 749 ft | 10 kts | 79° |
| 2026-05-07 13:06 | 45.63408 | 8.71924 | 745 ft | 12 kts | 149° |
| 2026-05-07 13:06 | 45.63331 | 8.71984 | 746 ft | 13 kts | 118° |
| 2026-05-07 13:06 | 45.63338 | 8.72130 | 748 ft | 16 kts | 79° |
| 2026-05-07 13:06 | 45.63362 | 8.72306 | 746 ft | 20 kts | 78° |
| 2026-05-07 13:07 | 45.63390 | 8.72490 | 745 ft | 17 kts | 78° |
| 2026-05-07 13:07 | 45.63402 | 8.72669 | 745 ft | 19 kts | 111° |
| 2026-05-07 13:07 | 45.63280 | 8.72750 | 745 ft | 22 kts | 169° |
| 2026-05-07 13:07 | 45.63126 | 8.72794 | 748 ft | 24 kts | 169° |
| 2026-05-07 13:08 | 45.62958 | 8.72840 | 747 ft | 25 kts | 169° |
| 2026-05-07 13:08 | 45.62779 | 8.72889 | 748 ft | 27 kts | 169° |
| 2026-05-07 13:08 | 45.62600 | 8.72937 | 746 ft | 24 kts | 169° |
| 2026-05-07 13:08 | 45.62433 | 8.72983 | 749 ft | 25 kts | 169° |
| 2026-05-07 13:09 | 45.62254 | 8.73033 | 749 ft | 27 kts | 169° |
| 2026-05-07 13:09 | 45.62085 | 8.73079 | 746 ft | 18 kts | 169° |
| 2026-05-07 13:09 | 45.61967 | 8.73112 | 748 ft | 17 kts | 169° |
| 2026-05-07 13:09 | 45.61907 | 8.73128 | 747 ft | 4 kts | 169° |
| 2026-05-07 13:10 | 45.61866 | 8.73140 | 749 ft | 7 kts | 169° |
| 2026-05-07 13:10 | 45.61804 | 8.73157 | 745 ft | 11 kts | 169° |
| 2026-05-07 13:10 | 45.61736 | 8.73217 | 747 ft | 13 kts | 127° |
| 2026-05-07 13:10 | 45.61679 | 8.73335 | 746 ft | 16 kts | 123° |
| 2026-05-07 13:11 | 45.61650 | 8.73399 | 745 ft | 1 kts | 123° |
| 2026-05-07 13:11 | 45.61633 | 8.73434 | 746 ft | 7 kts | 124° |
| 2026-05-07 13:11 | 45.61601 | 8.73514 | 746 ft | 11 kts | 113° |
| 2026-05-07 13:11 | 45.61589 | 8.73639 | 749 ft | 14 kts | 84° |
| 2026-05-07 13:12 | 45.61656 | 8.73728 | 745 ft | 17 kts | 354° |
| 2026-05-07 13:12 | 45.61781 | 8.73692 | 747 ft | 24 kts | 348° |
| 2026-05-07 13:12 | 45.62192 | 8.73578 | 745 ft | 96 kts | 349° |
| 2026-05-07 13:12 | 45.63060 | 8.73339 | 745 ft | 157 kts | 349° |
| 2026-05-07 13:13 | 45.64283 | 8.72996 | 882 ft | 195 kts | 349° |
| 2026-05-07 13:13 | 45.65627 | 8.72643 | 1554 ft | 200 kts | 353° |
| 2026-05-07 13:13 | 45.66996 | 8.72560 | 2540 ft | 193 kts | 2° |
| 2026-05-07 13:13 | 45.68352 | 8.72610 | 3203 ft | 201 kts | 360° |
| 2026-05-07 13:14 | 45.69809 | 8.72598 | 3642 ft | 217 kts | 359° |
| 2026-05-07 13:14 | 45.71378 | 8.72615 | 4064 ft | 234 kts | 7° |
| 2026-05-07 13:14 | 45.72851 | 8.73589 | 4615 ft | 244 kts | 45° |
| 2026-05-07 13:14 | 45.73716 | 8.75668 | 5322 ft | 250 kts | 74° |
| 2026-05-07 13:15 | 45.74090 | 8.78193 | 5869 ft | 267 kts | 81° |
| 2026-05-07 13:15 | 45.74350 | 8.80897 | 6563 ft | 276 kts | 83° |
| 2026-05-07 13:15 | 45.74584 | 8.83659 | 7432 ft | 279 kts | 83° |
| 2026-05-07 13:15 | 45.74813 | 8.86453 | 8320 ft | 284 kts | 83° |
| 2026-05-07 13:16 | 45.75040 | 8.89259 | 9195 ft | 288 kts | 83° |
| 2026-05-07 13:16 | 45.75271 | 8.92146 | 10070 ft | 293 kts | 83° |
| 2026-05-07 13:16 | 45.75505 | 8.95100 | 10722 ft | 305 kts | 83° |
| 2026-05-07 13:16 | 45.75750 | 8.98217 | 11192 ft | 323 kts | 83° |
| 2026-05-07 13:17 | 45.76023 | 9.01504 | 11665 ft | 342 kts | 80° |
| 2026-05-07 13:17 | 45.76886 | 9.04761 | 12037 ft | 360 kts | 54° |
| 2026-05-07 13:17 | 45.78744 | 9.07255 | 12436 ft | 375 kts | 28° |
| 2026-05-07 13:17 | 45.81253 | 9.08409 | 12910 ft | 386 kts | 4° |
| 2026-05-07 13:18 | 45.83937 | 9.08127 | 13745 ft | 387 kts | 349° |
| 2026-05-07 13:18 | 45.86579 | 9.07566 | 14566 ft | 391 kts | 351° |
| 2026-05-07 13:18 | 45.89311 | 9.07216 | 15318 ft | 396 kts | 355° |
| 2026-05-07 13:18 | 45.92091 | 9.07085 | 16117 ft | 400 kts | 357° |
| 2026-05-07 13:19 | 45.94895 | 9.07067 | 16914 ft | 404 kts | 358° |
| 2026-05-07 13:19 | 45.97731 | 9.07016 | 17702 ft | 408 kts | 355° |
| 2026-05-07 13:19 | 46.00540 | 9.06751 | 18445 ft | 412 kts | 352° |
| 2026-05-07 13:19 | 46.03410 | 9.06320 | 19122 ft | 416 kts | 352° |
| 2026-05-07 13:20 | 46.06304 | 9.05853 | 19773 ft | 420 kts | 352° |
| 2026-05-07 13:20 | 46.09221 | 9.05375 | 20442 ft | 424 kts | 352° |
| 2026-05-07 13:20 | 46.12173 | 9.04891 | 21113 ft | 428 kts | 352° |
| 2026-05-07 13:20 | 46.15141 | 9.04406 | 21756 ft | 432 kts | 352° |
| 2026-05-07 13:21 | 46.18148 | 9.03948 | 22403 ft | 436 kts | 352° |
| 2026-05-07 13:21 | 46.21186 | 9.03540 | 23026 ft | 440 kts | 353° |
| 2026-05-07 13:21 | 46.24251 | 9.03140 | 23616 ft | 443 kts | 353° |
| 2026-05-07 13:21 | 46.27343 | 9.02737 | 24122 ft | 446 kts | 353° |
| 2026-05-07 13:22 | 46.30446 | 9.02330 | 24620 ft | 450 kts | 353° |
| 2026-05-07 13:22 | 46.33536 | 9.01920 | 25149 ft | 453 kts | 353° |
| 2026-05-07 13:22 | 46.36692 | 9.01498 | 25666 ft | 456 kts | 352° |
| 2026-05-07 13:22 | 46.39856 | 9.01073 | 26213 ft | 459 kts | 352° |
| 2026-05-07 13:23 | 46.43059 | 9.00641 | 26715 ft | 463 kts | 352° |
| 2026-05-07 13:23 | 46.46283 | 9.00206 | 27274 ft | 466 kts | 352° |
| 2026-05-07 13:23 | 46.49518 | 8.99768 | 27825 ft | 470 kts | 352° |
| 2026-05-07 13:23 | 46.52794 | 8.99325 | 28289 ft | 473 kts | 352° |
| 2026-05-07 13:24 | 46.56084 | 8.98880 | 28874 ft | 474 kts | 352° |
| 2026-05-07 13:24 | 46.59309 | 8.98446 | 29649 ft | 471 kts | 352° |
| 2026-05-07 13:24 | 46.62564 | 8.98007 | 30441 ft | 467 kts | 352° |
| 2026-05-07 13:24 | 46.65766 | 8.97571 | 30980 ft | 468 kts | 352° |
| 2026-05-07 13:25 | 46.69019 | 8.97130 | 31406 ft | 471 kts | 352° |
| 2026-05-07 13:25 | 46.72298 | 8.96686 | 31794 ft | 474 kts | 351° |
| 2026-05-07 13:25 | 46.75594 | 8.96238 | 32011 ft | 477 kts | 351° |
| 2026-05-07 13:25 | 46.77787 | 8.95939 | 32002 ft | 477 kts | 351° |
| 2026-05-07 13:26 | 46.85487 | 8.94885 | 32021 ft | 477 kts | 352° |
| 2026-05-07 13:26 | 46.90998 | 8.94128 | 32027 ft | 477 kts | 352° |
| 2026-05-07 13:27 | 46.97642 | 8.93222 | 32027 ft | 477 kts | 352° |
| 2026-05-07 13:27 | 47.04254 | 8.92316 | 32056 ft | 477 kts | 352° |
| 2026-05-07 13:28 | 47.10864 | 8.91405 | 32047 ft | 477 kts | 352° |
| 2026-05-07 13:28 | 47.17440 | 8.90503 | 32041 ft | 477 kts | 352° |
| 2026-05-07 13:29 | 47.24049 | 8.89591 | 32038 ft | 477 kts | 352° |
| 2026-05-07 13:29 | 47.30692 | 8.89105 | 32037 ft | 478 kts | 358° |
| 2026-05-07 13:30 | 47.37331 | 8.89452 | 32039 ft | 479 kts | 0° |
| 2026-05-07 13:30 | 47.43987 | 8.89957 | 32035 ft | 479 kts | 0° |
| 2026-05-07 13:31 | 47.50651 | 8.90454 | 32041 ft | 479 kts | 1° |
| 2026-05-07 13:31 | 47.57365 | 8.90949 | 32037 ft | 479 kts | 1° |
| 2026-05-07 13:32 | 47.64002 | 8.91435 | 32038 ft | 479 kts | 0° |
| 2026-05-07 13:32 | 47.70478 | 8.91906 | 32043 ft | 479 kts | 1° |
| 2026-05-07 13:33 | 47.77154 | 8.92396 | 32037 ft | 479 kts | 1° |
| 2026-05-07 13:33 | 47.83777 | 8.92883 | 32035 ft | 479 kts | 1° |
| 2026-05-07 13:34 | 47.93802 | 8.93622 | 32016 ft | 480 kts | 1° |
| 2026-05-07 13:34 | 47.97144 | 8.93869 | 31739 ft | 480 kts | 1° |
| 2026-05-07 13:35 | 48.00211 | 8.94096 | 31501 ft | 480 kts | 1° |
| 2026-05-07 13:35 | 48.03511 | 8.94342 | 31246 ft | 480 kts | 1° |
| 2026-05-07 13:35 | 48.06830 | 8.94590 | 30987 ft | 472 kts | 1° |
| 2026-05-07 13:35 | 48.10103 | 8.94834 | 30746 ft | 470 kts | 1° |
| 2026-05-07 13:36 | 48.13377 | 8.95078 | 30496 ft | 470 kts | 1° |
| 2026-05-07 13:36 | 48.16645 | 8.95350 | 30242 ft | 471 kts | 2° |
| 2026-05-07 13:36 | 48.19921 | 8.95779 | 29974 ft | 471 kts | 4° |
| 2026-05-07 13:36 | 48.23185 | 8.96268 | 29704 ft | 472 kts | 4° |
| 2026-05-07 13:37 | 48.26417 | 8.96768 | 29417 ft | 472 kts | 4° |
| 2026-05-07 13:37 | 48.29693 | 8.97276 | 29122 ft | 473 kts | 4° |
| 2026-05-07 13:37 | 48.32979 | 8.97783 | 29037 ft | 473 kts | 4° |
| 2026-05-07 13:38 | 48.39548 | 8.98789 | 29022 ft | 474 kts | 4° |
| 2026-05-07 13:38 | 48.46076 | 8.99785 | 29027 ft | 474 kts | 4° |
| 2026-05-07 13:38 | 48.49362 | 9.00285 | 28710 ft | 475 kts | 4° |
| 2026-05-07 13:39 | 48.52651 | 9.00787 | 28094 ft | 475 kts | 4° |
| 2026-05-07 13:39 | 48.55932 | 9.01289 | 27493 ft | 471 kts | 4° |
| 2026-05-07 13:39 | 48.59187 | 9.01789 | 27096 ft | 466 kts | 4° |
| 2026-05-07 13:39 | 48.62359 | 9.02296 | 26663 ft | 463 kts | 5° |
| 2026-05-07 13:40 | 48.65595 | 9.02980 | 26218 ft | 460 kts | 7° |
| 2026-05-07 13:40 | 48.68707 | 9.03712 | 25773 ft | 457 kts | 7° |
| 2026-05-07 13:40 | 48.71834 | 9.04469 | 25336 ft | 453 kts | 7° |
| 2026-05-07 13:40 | 48.74945 | 9.05227 | 24908 ft | 450 kts | 7° |
| 2026-05-07 13:41 | 48.78022 | 9.05972 | 24456 ft | 446 kts | 6° |
| 2026-05-07 13:41 | 48.81085 | 9.06707 | 24010 ft | 442 kts | 6° |
| 2026-05-07 13:41 | 48.84119 | 9.07434 | 23569 ft | 439 kts | 6° |
| 2026-05-07 13:41 | 48.87125 | 9.08148 | 23064 ft | 435 kts | 6° |
| 2026-05-07 13:42 | 48.90099 | 9.08697 | 22606 ft | 430 kts | 3° |
| 2026-05-07 13:42 | 48.93096 | 9.09141 | 22148 ft | 425 kts | 2° |
| 2026-05-07 13:42 | 48.95987 | 9.09541 | 21725 ft | 422 kts | 2° |
| 2026-05-07 13:42 | 48.98917 | 9.09948 | 21287 ft | 418 kts | 2° |
| 2026-05-07 13:43 | 49.01801 | 9.10353 | 20840 ft | 415 kts | 2° |
| 2026-05-07 13:43 | 49.04647 | 9.10755 | 20318 ft | 414 kts | 2° |
| 2026-05-07 13:43 | 49.07506 | 9.11159 | 19802 ft | 412 kts | 2° |
| 2026-05-07 13:43 | 49.10361 | 9.11566 | 19292 ft | 410 kts | 3° |
| 2026-05-07 13:44 | 49.13212 | 9.11973 | 18770 ft | 408 kts | 3° |
| 2026-05-07 13:44 | 49.16040 | 9.12377 | 18262 ft | 407 kts | 3° |
| 2026-05-07 13:44 | 49.18850 | 9.12779 | 17696 ft | 405 kts | 3° |
| 2026-05-07 13:44 | 49.21648 | 9.13179 | 17171 ft | 402 kts | 3° |
| 2026-05-07 13:45 | 49.24384 | 9.13572 | 16674 ft | 399 kts | 4° |
| 2026-05-07 13:45 | 49.27145 | 9.13830 | 16224 ft | 396 kts | 355° |
| 2026-05-07 13:45 | 49.29863 | 9.13170 | 15989 ft | 395 kts | 346° |
| 2026-05-07 13:45 | 49.32534 | 9.12173 | 15726 ft | 394 kts | 344° |
| 2026-05-07 13:46 | 49.35197 | 9.11159 | 15478 ft | 392 kts | 345° |
| 2026-05-07 13:46 | 49.37810 | 9.10200 | 15225 ft | 391 kts | 345° |
| 2026-05-07 13:46 | 49.40459 | 9.09267 | 15046 ft | 389 kts | 346° |
| 2026-05-07 13:46 | 49.43114 | 9.08360 | 15046 ft | 389 kts | 346° |
| 2026-05-07 13:47 | 49.45760 | 9.07469 | 14884 ft | 388 kts | 346° |
| 2026-05-07 13:47 | 49.48391 | 9.06591 | 14628 ft | 386 kts | 346° |
| 2026-05-07 13:47 | 49.51025 | 9.05715 | 14376 ft | 385 kts | 346° |
| 2026-05-07 13:47 | 49.53646 | 9.04848 | 14145 ft | 384 kts | 346° |
| 2026-05-07 13:48 | 49.56254 | 9.03987 | 13906 ft | 382 kts | 346° |
| 2026-05-07 13:48 | 49.58826 | 9.03137 | 13645 ft | 381 kts | 346° |
| 2026-05-07 13:48 | 49.61420 | 9.02280 | 13368 ft | 380 kts | 346° |
| 2026-05-07 13:48 | 49.64011 | 9.01424 | 13117 ft | 378 kts | 347° |
| 2026-05-07 13:49 | 49.66578 | 9.00571 | 12839 ft | 376 kts | 347° |
| 2026-05-07 13:49 | 49.69094 | 8.99739 | 12537 ft | 370 kts | 347° |
| 2026-05-07 13:49 | 49.71594 | 8.98911 | 12187 ft | 362 kts | 347° |
| 2026-05-07 13:49 | 49.74041 | 8.98101 | 11828 ft | 355 kts | 347° |
| 2026-05-07 13:50 | 49.76434 | 8.97306 | 11562 ft | 346 kts | 347° |
| 2026-05-07 13:50 | 49.78753 | 8.96536 | 11368 ft | 335 kts | 347° |
| 2026-05-07 13:50 | 49.80967 | 8.95800 | 11178 ft | 325 kts | 347° |
| 2026-05-07 13:50 | 49.83145 | 8.95074 | 10987 ft | 315 kts | 346° |
| 2026-05-07 13:51 | 49.85258 | 8.94368 | 10807 ft | 305 kts | 346° |
| 2026-05-07 13:51 | 49.87308 | 8.93684 | 10635 ft | 296 kts | 346° |
| 2026-05-07 13:51 | 49.89297 | 8.93018 | 10456 ft | 286 kts | 346° |
| 2026-05-07 13:51 | 49.91230 | 8.92375 | 10200 ft | 281 kts | 347° |
| 2026-05-07 13:52 | 49.93157 | 8.91845 | 9848 ft | 281 kts | 350° |
| 2026-05-07 13:52 | 49.95075 | 8.91504 | 9463 ft | 280 kts | 354° |
| 2026-05-07 13:52 | 49.97020 | 8.91360 | 9061 ft | 279 kts | 358° |
| 2026-05-07 13:52 | 49.98952 | 8.91599 | 8681 ft | 279 kts | 10° |
| 2026-05-07 13:53 | 50.00720 | 8.92486 | 8315 ft | 279 kts | 23° |
| 2026-05-07 13:53 | 50.02424 | 8.94134 | 7910 ft | 279 kts | 38° |
| 2026-05-07 13:53 | 50.03751 | 8.96296 | 7527 ft | 280 kts | 52° |
| 2026-05-07 13:53 | 50.04723 | 8.98929 | 7150 ft | 280 kts | 65° |
| 2026-05-07 13:54 | 50.05419 | 9.01781 | 6802 ft | 278 kts | 69° |
| 2026-05-07 13:54 | 50.06054 | 9.04623 | 6454 ft | 277 kts | 69° |
| 2026-05-07 13:54 | 50.06759 | 9.07402 | 6083 ft | 273 kts | 57° |
| 2026-05-07 13:54 | 50.08051 | 9.09448 | 5860 ft | 260 kts | 27° |
| 2026-05-07 13:55 | 50.09728 | 9.10204 | 5663 ft | 247 kts | 357° |
| 2026-05-07 13:55 | 50.11311 | 9.09564 | 5478 ft | 235 kts | 326° |
| 2026-05-07 13:55 | 50.12403 | 9.07752 | 5259 ft | 227 kts | 295° |
| 2026-05-07 13:55 | 50.12923 | 9.05446 | 4982 ft | 224 kts | 286° |
| 2026-05-07 13:56 | 50.13295 | 9.03079 | 4683 ft | 224 kts | 284° |
| 2026-05-07 13:56 | 50.13473 | 9.00667 | 4371 ft | 224 kts | 269° |
| 2026-05-07 13:56 | 50.13255 | 8.98299 | 4239 ft | 218 kts | 257° |
| 2026-05-07 13:56 | 50.12845 | 8.96053 | 4082 ft | 211 kts | 255° |
| 2026-05-07 13:57 | 50.12412 | 8.93910 | 4006 ft | 199 kts | 253° |
| 2026-05-07 13:57 | 50.11979 | 8.91937 | 3994 ft | 187 kts | 253° |
| 2026-05-07 13:57 | 50.11549 | 8.90063 | 3989 ft | 186 kts | 252° |
| 2026-05-07 13:57 | 50.11100 | 8.88165 | 3993 ft | 186 kts | 252° |
| 2026-05-07 13:58 | 50.10645 | 8.86268 | 3993 ft | 186 kts | 252° |
| 2026-05-07 13:58 | 50.10186 | 8.84367 | 3887 ft | 187 kts | 251° |
| 2026-05-07 13:58 | 50.09727 | 8.82480 | 3625 ft | 185 kts | 252° |
| 2026-05-07 13:58 | 50.09272 | 8.80606 | 3373 ft | 185 kts | 252° |
| 2026-05-07 13:59 | 50.08821 | 8.78741 | 3129 ft | 185 kts | 252° |
| 2026-05-07 13:59 | 50.08367 | 8.76861 | 2890 ft | 184 kts | 251° |
| 2026-05-07 13:59 | 50.07915 | 8.74987 | 2639 ft | 184 kts | 251° |
| 2026-05-07 13:59 | 50.07472 | 8.73148 | 2402 ft | 184 kts | 251° |
| 2026-05-07 14:00 | 50.07028 | 8.71299 | 2145 ft | 178 kts | 251° |
| 2026-05-07 14:00 | 50.06622 | 8.69533 | 1887 ft | 167 kts | 256° |
| 2026-05-07 14:00 | 50.06399 | 8.67830 | 1661 ft | 154 kts | 262° |
| 2026-05-07 14:00 | 50.06203 | 8.66206 | 1410 ft | 151 kts | 259° |
| 2026-05-07 14:01 | 50.05917 | 8.64626 | 1206 ft | 151 kts | 252° |
| 2026-05-07 14:01 | 50.05563 | 8.63093 | 1021 ft | 148 kts | 251° |
| 2026-05-07 14:01 | 50.05205 | 8.61593 | 792 ft | 147 kts | 251° |
| 2026-05-07 14:01 | 50.04859 | 8.60127 | 598 ft | 145 kts | 249° |
| 2026-05-07 14:02 | 50.04501 | 8.58649 | 421 ft | 145 kts | 249° |
| 2026-05-07 14:02 | 50.04171 | 8.57275 | 377 ft | 114 kts | 250° |
| 2026-05-07 14:02 | 50.03974 | 8.56445 | 366 ft | 47 kts | 250° |
| 2026-05-07 14:02 | 50.03897 | 8.56102 | 367 ft | 25 kts | 256° |
| 2026-05-07 14:03 | 50.03889 | 8.55827 | 361 ft | 25 kts | 277° |
| 2026-05-07 14:03 | 50.03903 | 8.55697 | 361 ft | 10 kts | 285° |
| 2026-05-07 14:03 | 50.03956 | 8.55638 | 366 ft | 11 kts | 21° |
| 2026-05-07 14:03 | 50.04002 | 8.55749 | 365 ft | 13 kts | 69° |
| 2026-05-07 14:04 | 50.04014 | 8.55802 | 365 ft | 0 kts | 69° |
| 2026-05-07 14:04 | 50.04019 | 8.55819 | 363 ft | 3 kts | 69° |
| 2026-05-07 14:04 | 50.04037 | 8.55899 | 366 ft | 13 kts | 69° |
| 2026-05-07 14:04 | 50.04114 | 8.55950 | 365 ft | 14 kts | 348° |
| 2026-05-07 14:05 | 50.04221 | 8.55925 | 362 ft | 17 kts | 16° |
| 2026-05-07 14:05 | 50.04340 | 8.55937 | 370 ft | 18 kts | 344° |
| 2026-05-07 14:05 | 50.04463 | 8.55927 | 369 ft | 13 kts | 15° |
| 2026-05-07 14:05 | 50.04552 | 8.55987 | 366 ft | 15 kts | 49° |
| 2026-05-07 14:06 | 50.04598 | 8.56150 | 368 ft | 14 kts | 69° |
| 2026-05-07 14:06 | 50.04618 | 8.56231 | 366 ft | 6 kts | 69° |
| 2026-05-07 14:06 | 50.04638 | 8.56314 | 366 ft | 10 kts | 69° |
| 2026-05-07 14:06 | 50.04666 | 8.56430 | 368 ft | 7 kts | 69° |
| 2026-05-07 14:07 | 50.04683 | 8.56494 | 369 ft | 8 kts | 60° |
| 2026-05-07 14:07 | 50.04722 | 8.56521 | 370 ft | 7 kts | 351° |
| 2026-05-07 14:07 | 50.04756 | 8.56508 | 369 ft | 4 kts | 340° |
| 2026-05-07 14:07 | 50.04768 | 8.56501 | 369 ft | 1 kts | 340° |
| 2026-05-07 14:08 | 50.04773 | 8.56497 | 368 ft | 0 kts | 340° |
| 2026-05-07 14:08 | 50.04774 | 8.56497 | 368 ft | 0 kts | 340° |